createdAt,value
2018-09-09T00:00:50.228Z,3.77
2018-09-09T00:03:18.595Z,3.53
2018-09-09T00:05:46.977Z,4.53
2018-09-09T00:08:15.343Z,4.33
2018-09-09T00:10:43.738Z,4.00
2018-09-09T00:13:12.099Z,3.47
2018-09-09T00:15:40.477Z,4.20
2018-09-09T00:18:08.834Z,4.20
2018-09-09T00:20:37.218Z,3.83
2018-09-09T00:23:05.877Z,3.20
2018-09-09T00:25:34.277Z,3.23
2018-09-09T00:28:02.903Z,3.30
2018-09-09T00:30:31.290Z,3.60
2018-09-09T00:32:59.664Z,4.20
2018-09-09T00:35:28.061Z,3.97
2018-09-09T00:37:56.425Z,3.30
2018-09-09T00:40:24.846Z,3.57
2018-09-09T00:42:53.242Z,4.00
2018-09-09T00:45:21.635Z,4.13
2018-09-09T00:47:50.002Z,3.43
2018-09-09T00:50:23.850Z,3.17
2018-09-09T00:54:01.913Z,3.70
2018-09-09T00:56:30.298Z,4.10
2018-09-09T00:58:58.661Z,4.10
2018-09-09T01:01:27.052Z,3.97
2018-09-09T01:03:55.464Z,3.97
2018-09-09T01:06:23.920Z,3.37
2018-09-09T01:08:52.257Z,2.90
2018-09-09T01:11:20.651Z,3.83
2018-09-09T01:13:49.021Z,3.10
2018-09-09T01:16:17.433Z,3.53
2018-09-09T01:18:45.798Z,3.57
2018-09-09T01:21:14.206Z,3.60
2018-09-09T01:23:42.595Z,4.60
2018-09-09T01:26:11.017Z,3.80
2018-09-09T01:28:39.386Z,3.30
2018-09-09T01:31:07.774Z,4.30
2018-09-09T01:33:36.142Z,4.53
2018-09-09T01:36:04.539Z,4.80
2018-09-09T01:38:32.918Z,4.97
2018-09-09T01:41:01.311Z,5.30
2018-09-09T01:43:29.682Z,6.57
2018-09-09T01:45:58.082Z,5.67
2018-09-09T01:48:26.454Z,5.20
2018-09-09T01:50:54.846Z,6.30
2018-09-09T01:53:23.257Z,6.53
2018-09-09T01:55:51.625Z,6.10
2018-09-09T01:58:20.023Z,5.47
2018-09-09T02:00:48.393Z,4.53
2018-09-09T02:03:16.787Z,3.50
2018-09-09T02:05:45.162Z,4.30
2018-09-09T02:08:13.545Z,4.30
2018-09-09T02:10:41.907Z,4.00
2018-09-09T02:13:10.298Z,3.73
2018-09-09T02:15:38.661Z,3.27
2018-09-09T02:18:07.058Z,3.13
2018-09-09T02:20:35.431Z,3.63
2018-09-09T02:23:03.850Z,3.53
2018-09-09T02:25:32.219Z,3.77
2018-09-09T02:28:00.609Z,6.27
2018-09-09T02:30:28.976Z,6.23
2018-09-09T02:32:57.370Z,6.23
2018-09-09T02:35:25.739Z,5.90
2018-09-09T02:37:54.126Z,5.70
2018-09-09T02:40:22.489Z,5.67
2018-09-09T02:42:50.875Z,5.07
2018-09-09T02:45:19.247Z,4.73
2018-09-09T02:47:47.643Z,4.07
2018-09-09T02:50:16.015Z,4.90
2018-09-09T02:52:44.411Z,3.60
2018-09-09T02:55:12.775Z,4.70
2018-09-09T02:57:41.171Z,4.40
2018-09-09T03:00:09.538Z,4.17
2018-09-09T03:02:37.931Z,5.03
2018-09-09T03:05:07.957Z,4.90
2018-09-09T03:07:36.342Z,4.37
2018-09-09T03:10:04.803Z,4.17
2018-09-09T03:12:33.181Z,4.90
2018-09-09T03:15:01.551Z,4.67
2018-09-09T03:17:29.943Z,4.20
2018-09-09T03:19:58.389Z,4.20
2018-09-09T03:22:26.828Z,3.80
2018-09-09T03:24:55.226Z,4.93
2018-09-09T03:27:23.699Z,4.50
2018-09-09T03:29:52.075Z,4.00
2018-09-09T03:32:20.482Z,4.33
2018-09-09T03:34:48.950Z,5.00
2018-09-09T03:37:17.362Z,3.70
2018-09-09T03:39:45.744Z,3.53
2018-09-09T03:42:14.142Z,4.60
2018-09-09T03:44:42.515Z,4.13
2018-09-09T03:47:10.919Z,3.30
2018-09-09T03:49:39.287Z,3.43
2018-09-09T03:52:07.683Z,3.53
2018-09-09T03:54:36.049Z,3.67
2018-09-09T03:57:04.423Z,4.03
2018-09-09T03:59:32.818Z,3.70
2018-09-09T04:02:01.182Z,3.20
2018-09-09T04:04:29.563Z,3.77
2018-09-09T04:06:57.955Z,3.87
2018-09-09T04:09:26.346Z,3.83
2018-09-09T04:11:54.705Z,3.10
2018-09-09T04:14:23.098Z,2.90
2018-09-09T04:16:51.520Z,3.50
2018-09-09T04:19:19.909Z,3.50
2018-09-09T04:21:52.999Z,2.87
2018-09-09T04:24:22.938Z,3.07
2018-09-09T04:26:51.306Z,3.07
2018-09-09T04:29:19.706Z,3.23
2018-09-09T04:31:48.077Z,4.03
2018-09-09T04:34:16.465Z,3.03
2018-09-09T04:36:44.829Z,3.17
2018-09-09T04:39:14.350Z,3.03
2018-09-09T04:41:42.908Z,2.50
2018-09-09T04:44:12.534Z,2.67
2018-09-09T04:46:40.908Z,4.07
2018-09-09T04:49:09.915Z,3.00
2018-09-09T04:51:38.310Z,3.40
2018-09-09T04:54:06.870Z,3.37
2018-09-09T04:56:35.245Z,3.30
2018-09-09T04:59:03.652Z,3.40
2018-09-09T05:01:32.014Z,2.83
2018-09-09T05:04:00.402Z,3.33
2018-09-09T05:06:28.773Z,2.67
2018-09-09T05:08:57.158Z,2.63
2018-09-09T05:11:25.806Z,3.77
2018-09-09T05:13:54.231Z,2.93
2018-09-09T05:16:22.604Z,3.07
2018-09-09T05:18:51.002Z,3.23
2018-09-09T05:21:19.386Z,3.40
2018-09-09T05:23:47.787Z,2.57
2018-09-09T05:26:16.175Z,3.03
2018-09-09T05:28:44.566Z,2.23
2018-09-09T05:31:12.925Z,3.33
2018-09-09T05:33:41.315Z,2.90
2018-09-09T05:36:09.673Z,3.30
2018-09-09T05:38:38.062Z,3.53
2018-09-09T05:41:06.434Z,2.97
2018-09-09T05:43:34.974Z,2.87
2018-09-09T05:46:03.345Z,3.73
2018-09-09T05:48:31.735Z,4.93
2018-09-09T05:51:00.099Z,7.70
2018-09-09T05:53:28.490Z,8.90
2018-09-09T05:55:56.858Z,8.37
2018-09-09T05:58:25.261Z,13.70
2018-09-09T06:00:53.639Z,12.97
2018-09-09T06:03:22.035Z,9.40
2018-09-09T06:05:50.439Z,7.70
2018-09-09T06:08:18.811Z,5.13
2018-09-09T06:10:51.366Z,3.30
2018-09-09T06:13:19.737Z,3.60
2018-09-09T06:15:48.129Z,3.00
2018-09-09T06:18:16.517Z,3.70
2018-09-09T06:20:44.977Z,3.77
2018-09-09T06:23:13.637Z,3.27
2018-09-09T06:25:42.038Z,3.60
2018-09-09T06:28:10.453Z,3.40
2018-09-09T06:30:38.842Z,3.00
2018-09-09T06:33:07.563Z,4.10
2018-09-09T06:35:35.994Z,3.60
2018-09-09T06:38:04.368Z,4.27
2018-09-09T06:40:32.763Z,3.60
2018-09-09T06:43:01.139Z,4.17
2018-09-09T06:45:29.558Z,3.47
2018-09-09T06:47:58.037Z,3.20
2018-09-09T06:50:26.414Z,3.73
2018-09-09T06:52:54.782Z,3.10
2018-09-09T06:55:23.223Z,3.87
2018-09-09T06:57:51.574Z,3.97
2018-09-09T07:00:19.957Z,3.60
2018-09-09T07:02:48.313Z,3.80
2018-09-09T07:05:16.697Z,3.30
2018-09-09T07:07:45.061Z,3.43
2018-09-09T07:10:13.445Z,3.77
2018-09-09T07:12:41.818Z,4.07
2018-09-09T07:15:10.343Z,3.57
2018-09-09T07:17:38.717Z,3.00
2018-09-09T07:20:07.098Z,3.70
2018-09-09T07:22:35.539Z,3.70
2018-09-09T07:25:03.909Z,3.60
2018-09-09T07:27:32.283Z,3.00
2018-09-09T07:30:00.666Z,3.37
2018-09-09T07:32:29.047Z,3.87
2018-09-09T07:34:57.443Z,3.17
2018-09-09T07:37:25.818Z,3.50
2018-09-09T07:39:54.231Z,4.10
2018-09-09T07:42:22.599Z,4.10
2018-09-09T07:44:50.994Z,3.30
2018-09-09T07:47:19.373Z,2.80
2018-09-09T07:49:47.769Z,3.40
2018-09-09T07:52:16.147Z,3.13
2018-09-09T07:54:44.543Z,3.03
2018-09-09T07:57:12.914Z,3.07
2018-09-09T07:59:41.307Z,2.67
2018-09-09T08:02:09.675Z,2.80
2018-09-09T08:04:38.122Z,2.73
2018-09-09T08:07:06.491Z,2.87
2018-09-09T08:09:34.858Z,2.60
2018-09-09T08:12:03.266Z,3.20
2018-09-09T08:14:31.626Z,2.57
2018-09-09T08:17:00.010Z,3.13
2018-09-09T08:19:28.379Z,2.70
2018-09-09T08:21:56.803Z,3.00
2018-09-09T08:24:25.179Z,2.33
2018-09-09T08:26:53.562Z,3.07
2018-09-09T08:29:21.930Z,2.50
2018-09-09T08:31:50.331Z,2.73
2018-09-09T08:34:18.698Z,2.60
2018-09-09T08:36:47.081Z,2.77
2018-09-09T08:39:15.455Z,2.33
2018-09-09T08:41:43.884Z,2.33
2018-09-09T08:44:12.263Z,2.90
2018-09-09T08:46:40.657Z,2.20
2018-09-09T08:49:09.031Z,2.40
2018-09-09T08:51:38.012Z,2.70
2018-09-09T08:54:06.394Z,2.30
2018-09-09T08:56:34.790Z,2.13
2018-09-09T08:59:03.159Z,2.50
2018-09-09T09:01:31.556Z,2.20
2018-09-09T09:03:59.925Z,2.67
2018-09-09T09:06:28.319Z,2.13
2018-09-09T09:08:56.695Z,2.70
2018-09-09T09:11:25.093Z,1.83
2018-09-09T09:13:53.662Z,2.50
2018-09-09T09:16:22.161Z,2.37
2018-09-09T09:18:50.535Z,2.63
2018-09-09T09:21:18.950Z,2.30
2018-09-09T09:23:47.315Z,2.50
2018-09-09T09:26:15.710Z,2.70
2018-09-09T09:28:44.074Z,2.50
2018-09-09T09:31:12.490Z,2.60
2018-09-09T09:33:40.866Z,1.97
2018-09-09T09:36:09.258Z,2.63
2018-09-09T09:38:37.635Z,2.27
2018-09-09T09:41:06.174Z,2.30
2018-09-09T09:43:34.542Z,2.63
2018-09-09T09:46:02.939Z,3.00
2018-09-09T09:48:31.307Z,2.00
2018-09-09T09:50:59.693Z,3.07
2018-09-09T09:53:28.100Z,2.37
2018-09-09T09:55:56.469Z,2.53
2018-09-09T09:58:24.855Z,1.80
2018-09-09T10:00:59.931Z,5.30
2018-09-09T10:03:28.359Z,2.67
2018-09-09T10:05:56.777Z,2.80
2018-09-09T10:08:25.166Z,1.80
2018-09-09T10:10:53.545Z,2.13
2018-09-09T10:13:21.927Z,2.50
2018-09-09T10:15:50.294Z,2.20
2018-09-09T10:18:18.686Z,2.60
2018-09-09T10:20:47.048Z,2.20
2018-09-09T10:23:15.462Z,3.93
2018-09-09T10:25:43.847Z,1.70
2018-09-09T10:28:12.295Z,2.40
2018-09-09T10:30:40.679Z,2.47
2018-09-09T10:33:09.103Z,2.17
2018-09-09T10:35:37.479Z,1.93
2018-09-09T10:38:05.921Z,1.70
2018-09-09T10:40:34.292Z,2.30
2018-09-09T10:43:02.676Z,2.03
2018-09-09T10:45:31.052Z,2.10
2018-09-09T10:47:59.433Z,1.93
2018-09-09T10:50:27.798Z,1.63
2018-09-09T10:52:56.178Z,1.90
2018-09-09T10:55:24.571Z,2.43
2018-09-09T10:57:52.968Z,1.73
2018-09-09T11:00:21.342Z,2.87
2018-09-09T11:02:49.732Z,2.27
2018-09-09T11:05:18.098Z,1.80
2018-09-09T11:07:46.571Z,2.30
2018-09-09T11:10:14.943Z,1.70
2018-09-09T11:12:43.405Z,1.97
2018-09-09T11:15:11.742Z,1.80
2018-09-09T11:17:40.135Z,2.00
2018-09-09T11:20:08.511Z,1.97
2018-09-09T11:22:36.917Z,1.80
2018-09-09T11:25:05.283Z,2.00
2018-09-09T11:27:33.686Z,1.90
2018-09-09T11:30:02.148Z,1.70
2018-09-09T11:32:30.476Z,2.13
2018-09-09T11:34:58.845Z,1.87
2018-09-09T11:37:27.230Z,2.17
2018-09-09T11:39:55.596Z,2.30
2018-09-09T11:42:23.987Z,1.57
2018-09-09T11:44:52.355Z,2.20
2018-09-09T11:47:20.752Z,2.00
2018-09-09T11:49:49.122Z,2.07
2018-09-09T11:52:17.506Z,2.20
2018-09-09T11:54:45.866Z,1.90
2018-09-09T11:57:14.229Z,1.87
2018-09-09T11:59:42.623Z,1.80
2018-09-09T12:02:10.990Z,1.83
2018-09-09T12:04:39.503Z,1.70
2018-09-09T12:07:07.911Z,1.80
2018-09-09T12:09:36.307Z,1.90
2018-09-09T12:12:04.675Z,2.80
2018-09-09T12:14:33.071Z,2.17
2018-09-09T12:17:01.443Z,2.47
2018-09-09T12:19:29.839Z,2.20
2018-09-09T12:21:58.247Z,2.03
2018-09-09T12:24:26.647Z,2.00
2018-09-09T12:26:55.234Z,1.97
2018-09-09T12:29:23.636Z,2.30
2018-09-09T12:31:52.003Z,1.77
2018-09-09T12:34:20.405Z,2.13
2018-09-09T12:36:48.774Z,2.17
2018-09-09T12:39:17.171Z,2.30
2018-09-09T12:41:45.538Z,1.97
2018-09-09T12:44:19.396Z,2.00
2018-09-09T12:46:53.091Z,2.40
2018-09-09T12:49:21.477Z,2.60
2018-09-09T12:51:49.834Z,2.20
2018-09-09T12:54:18.223Z,2.10
2018-09-09T12:56:46.590Z,2.03
2018-09-09T12:59:14.987Z,1.93
2018-09-09T13:01:43.350Z,2.07
2018-09-09T13:04:11.741Z,2.43
2018-09-09T13:06:40.115Z,2.20
2018-09-09T13:09:09.287Z,2.07
2018-09-09T13:11:37.655Z,2.10
2018-09-09T13:14:06.055Z,2.33
2018-09-09T13:16:34.458Z,2.20
2018-09-09T13:19:02.888Z,2.20
2018-09-09T13:21:31.287Z,1.97
2018-09-09T13:23:59.710Z,2.50
2018-09-09T13:26:28.078Z,1.93
2018-09-09T13:28:56.470Z,1.93
2018-09-09T13:31:24.878Z,2.30
2018-09-09T13:33:53.271Z,2.00
2018-09-09T13:36:21.635Z,2.90
2018-09-09T13:38:50.013Z,1.73
2018-09-09T13:41:18.376Z,1.70
2018-09-09T13:43:46.771Z,2.07
2018-09-09T13:46:15.130Z,2.40
2018-09-09T13:48:43.516Z,2.07
2018-09-09T13:51:11.890Z,1.70
2018-09-09T13:53:40.298Z,2.20
2018-09-09T13:56:08.659Z,2.00
2018-09-09T13:58:37.024Z,2.10
2018-09-09T14:01:05.417Z,1.80
2018-09-09T14:03:33.909Z,2.53
2018-09-09T14:06:02.307Z,2.30
2018-09-09T14:08:30.673Z,2.30
2018-09-09T14:10:59.063Z,2.40
2018-09-09T14:13:27.439Z,2.10
2018-09-09T14:15:55.834Z,2.20
2018-09-09T14:18:24.225Z,2.00
2018-09-09T14:20:52.618Z,2.50
2018-09-09T14:23:21.013Z,2.50
2018-09-09T14:25:49.426Z,2.00
2018-09-09T14:28:17.792Z,2.30
2018-09-09T14:30:46.190Z,1.90
2018-09-09T14:33:14.567Z,2.03
2018-09-09T14:35:42.955Z,2.30
2018-09-09T14:38:11.317Z,2.20
2018-09-09T14:40:39.698Z,2.90
2018-09-09T14:43:08.108Z,2.40
2018-09-09T14:45:36.509Z,2.87
2018-09-09T14:48:04.882Z,2.43
2018-09-09T14:50:33.269Z,2.23
2018-09-09T14:53:01.675Z,2.10
2018-09-09T14:55:30.062Z,2.27
2018-09-09T14:57:58.434Z,2.40
2018-09-09T15:00:26.909Z,2.70
2018-09-09T15:02:55.311Z,3.00
2018-09-09T15:05:23.698Z,2.33
2018-09-09T15:07:52.061Z,2.93
2018-09-09T15:10:20.453Z,2.40
2018-09-09T15:12:48.831Z,2.17
2018-09-09T15:15:17.223Z,1.90
2018-09-09T15:17:45.593Z,2.50
2018-09-09T15:20:13.981Z,2.37
2018-09-09T15:22:42.371Z,3.57
2018-09-09T15:25:10.762Z,2.73
2018-09-09T15:27:39.134Z,3.23
2018-09-09T15:30:07.528Z,2.20
2018-09-09T15:32:35.894Z,3.30
2018-09-09T15:35:04.307Z,2.30
2018-09-09T15:37:32.675Z,2.20
2018-09-09T15:40:01.087Z,2.80
2018-09-09T15:42:29.461Z,2.70
2018-09-09T15:44:57.850Z,2.70
2018-09-09T15:47:26.223Z,2.77
2018-09-09T15:49:54.827Z,2.60
2018-09-09T15:52:23.221Z,2.53
2018-09-09T15:54:51.585Z,2.13
2018-09-09T15:57:19.970Z,2.50
2018-09-09T15:59:48.339Z,2.60
2018-09-09T16:02:16.730Z,3.07
2018-09-09T16:04:45.104Z,3.00
2018-09-09T16:07:13.545Z,2.47
2018-09-09T16:09:41.873Z,2.17
2018-09-09T16:12:10.263Z,2.53
2018-09-09T16:14:38.621Z,2.43
2018-09-09T16:17:07.007Z,2.13
2018-09-09T16:19:35.370Z,2.30
2018-09-09T16:22:03.795Z,2.03
2018-09-09T16:24:32.239Z,2.40
2018-09-09T16:27:00.583Z,2.40
2018-09-09T16:29:28.950Z,2.50
2018-09-09T16:31:57.346Z,2.90
2018-09-09T16:34:25.790Z,3.13
2018-09-09T16:36:54.227Z,3.00
2018-09-09T16:39:22.573Z,2.93
2018-09-09T16:41:50.971Z,2.47
2018-09-09T16:44:19.486Z,3.00
2018-09-09T16:46:47.994Z,2.73
2018-09-09T16:49:16.310Z,2.90
2018-09-09T16:51:44.697Z,2.47
2018-09-09T16:54:13.066Z,2.90
2018-09-09T16:56:41.467Z,3.20
2018-09-09T16:59:09.886Z,2.10
2018-09-09T17:01:38.283Z,2.40
2018-09-09T17:04:06.693Z,2.67
2018-09-09T17:06:35.079Z,3.17
2018-09-09T17:09:03.819Z,2.80
2018-09-09T17:11:32.219Z,2.97
2018-09-09T17:14:00.596Z,3.00
2018-09-09T17:16:29.002Z,3.40
2018-09-09T17:18:57.376Z,3.00
2018-09-09T17:21:25.795Z,2.77
2018-09-09T17:23:54.162Z,2.90
2018-09-09T17:26:22.559Z,3.60
2018-09-09T17:28:50.943Z,3.50
2018-09-09T17:31:19.331Z,3.20
2018-09-09T17:33:47.859Z,2.93
2018-09-09T17:36:16.369Z,3.40
2018-09-09T17:38:44.741Z,2.50
2018-09-09T17:41:13.131Z,2.87
2018-09-09T17:43:41.718Z,3.03
2018-09-09T17:46:10.110Z,2.90
2018-09-09T17:48:38.478Z,3.03
2018-09-09T17:51:06.899Z,3.77
2018-09-09T17:53:36.067Z,3.83
2018-09-09T17:56:04.706Z,3.60
2018-09-09T17:58:33.226Z,3.43
2018-09-09T18:01:01.590Z,3.00
2018-09-09T18:03:29.986Z,3.30
2018-09-09T18:05:58.363Z,2.93
2018-09-09T18:08:26.759Z,2.83
2018-09-09T18:10:55.146Z,2.70
2018-09-09T18:13:23.579Z,3.10
2018-09-09T18:15:51.987Z,3.70
2018-09-09T18:18:20.379Z,3.27
2018-09-09T18:20:48.742Z,2.80
2018-09-09T18:23:17.159Z,3.23
2018-09-09T18:25:45.826Z,4.10
2018-09-09T18:28:14.222Z,6.17
2018-09-09T18:30:42.611Z,5.10
2018-09-09T18:33:11.139Z,5.50
2018-09-09T18:35:39.725Z,4.83
2018-09-09T18:38:08.117Z,5.00
2018-09-09T18:40:36.487Z,5.80
2018-09-09T18:43:04.873Z,4.67
2018-09-09T18:45:33.421Z,5.17
2018-09-09T18:48:01.949Z,4.63
2018-09-09T18:50:30.319Z,5.50
2018-09-09T18:52:58.710Z,5.00
2018-09-09T18:55:27.095Z,6.10
2018-09-09T18:57:55.491Z,5.73
2018-09-09T19:00:23.870Z,5.27
2018-09-09T19:02:52.263Z,5.00
2018-09-09T19:05:20.749Z,5.67
2018-09-09T19:07:49.667Z,5.13
2018-09-09T19:10:18.331Z,3.90
2018-09-09T19:12:46.883Z,4.10
2018-09-09T19:15:15.481Z,4.77
2018-09-09T19:17:44.017Z,4.80
2018-09-09T19:20:12.828Z,4.00
2018-09-09T19:22:41.594Z,3.87
2018-09-09T19:25:10.023Z,4.03
2018-09-09T19:27:38.661Z,4.00
2018-09-09T19:30:07.371Z,4.00
2018-09-09T19:32:35.923Z,4.60
2018-09-09T19:35:04.470Z,3.90
2018-09-09T19:37:33.003Z,4.10
2018-09-09T19:40:01.580Z,4.20
2018-09-09T19:42:33.542Z,4.30
2018-09-09T19:45:02.673Z,4.10
2018-09-09T19:47:31.325Z,3.33
2018-09-09T19:49:59.895Z,4.53
2018-09-09T19:52:28.350Z,4.53
2018-09-09T19:54:56.813Z,4.87
2018-09-09T19:57:25.494Z,3.63
2018-09-09T19:59:54.028Z,4.07
2018-09-09T20:02:22.510Z,4.57
2018-09-09T20:04:51.002Z,4.80
2018-09-09T20:07:19.326Z,4.80
2018-09-09T20:09:47.751Z,3.93
2018-09-09T20:12:16.142Z,4.63
2018-09-09T20:14:44.527Z,4.37
2018-09-09T20:17:12.895Z,4.93
2018-09-09T20:19:41.335Z,4.40
2018-09-09T20:22:10.959Z,4.57
2018-09-09T20:24:39.349Z,4.50
2018-09-09T20:27:07.743Z,4.77
2018-09-09T20:29:36.133Z,4.57
2018-09-09T20:32:04.517Z,5.00
2018-09-09T20:34:32.907Z,6.30
2018-09-09T20:37:01.275Z,4.87
2018-09-09T20:39:29.749Z,4.40
2018-09-09T20:41:58.113Z,4.63
2018-09-09T20:44:26.505Z,4.50
2018-09-09T20:46:54.865Z,4.67
2018-09-09T20:49:23.250Z,4.20
2018-09-09T20:51:51.650Z,4.43
2018-09-09T20:54:20.034Z,3.70
2018-09-09T20:56:48.403Z,4.50
2018-09-09T20:59:16.795Z,4.13
2018-09-09T21:01:45.180Z,3.60
2018-09-09T21:04:13.570Z,4.10
2018-09-09T21:06:41.944Z,4.37
2018-09-09T21:09:11.974Z,4.67
2018-09-09T21:11:40.334Z,4.60
2018-09-09T21:14:09.038Z,4.80
2018-09-09T21:16:37.432Z,4.60
2018-09-09T21:19:06.266Z,4.20
2018-09-09T21:21:34.977Z,3.83
2018-09-09T21:24:03.445Z,4.57
2018-09-09T21:26:31.839Z,4.27
2018-09-09T21:29:00.279Z,4.10
2018-09-09T21:31:28.679Z,3.80
2018-09-09T21:33:57.071Z,4.80
2018-09-09T21:36:25.446Z,3.93
2018-09-09T21:38:53.838Z,3.63
2018-09-09T21:41:22.201Z,4.27
2018-09-09T21:43:50.589Z,4.00
2018-09-09T21:46:19.063Z,4.50
2018-09-09T21:48:47.459Z,5.10
2018-09-09T21:51:15.831Z,4.27
2018-09-09T21:53:44.239Z,4.60
2018-09-09T21:56:12.611Z,5.70
2018-09-09T21:58:41.033Z,4.73
2018-09-09T22:01:14.879Z,4.53
2018-09-09T22:03:43.291Z,3.50
2018-09-09T22:06:11.666Z,3.70
2018-09-09T22:08:40.046Z,4.20
2018-09-09T22:11:08.434Z,4.70
2018-09-09T22:13:36.805Z,4.10
2018-09-09T22:16:05.203Z,4.67
2018-09-09T22:18:33.566Z,4.60
2018-09-09T22:21:01.958Z,4.17
2018-09-09T22:23:30.364Z,3.93
2018-09-09T22:25:58.774Z,3.83
2018-09-09T22:28:27.159Z,3.67
2018-09-09T22:30:55.542Z,4.13
2018-09-09T22:33:23.917Z,4.87
2018-09-09T22:35:52.417Z,4.20
2018-09-09T22:38:20.795Z,4.10
2018-09-09T22:40:49.183Z,5.60
2018-09-09T22:43:17.571Z,4.43
2018-09-09T22:45:49.023Z,3.93
2018-09-09T22:48:17.706Z,5.20
2018-09-09T22:50:46.586Z,4.57
2018-09-09T22:53:15.141Z,4.83
2018-09-09T22:55:43.547Z,5.00
2018-09-09T22:58:11.965Z,4.90
2018-09-09T23:00:40.365Z,4.67
2018-09-09T23:03:08.975Z,4.60
2018-09-09T23:05:37.409Z,4.60
2018-09-09T23:08:05.799Z,5.00
2018-09-09T23:10:34.195Z,4.33
2018-09-09T23:13:02.572Z,4.63
2018-09-09T23:15:30.974Z,5.33
2018-09-09T23:17:59.347Z,5.67
2018-09-09T23:20:27.742Z,4.90
2018-09-09T23:22:56.139Z,5.17
2018-09-09T23:25:24.681Z,5.60
2018-09-09T23:27:53.486Z,4.93
2018-09-09T23:30:21.883Z,5.67
2018-09-09T23:32:50.267Z,5.13
2018-09-09T23:35:18.657Z,5.40
2018-09-09T23:37:47.022Z,5.07
2018-09-09T23:40:15.415Z,4.73
2018-09-09T23:42:43.787Z,5.60
2018-09-09T23:45:12.180Z,5.50
2018-09-09T23:47:40.546Z,5.50
2018-09-09T23:50:08.948Z,4.80
2018-09-09T23:52:37.325Z,6.00
2018-09-09T23:55:06.329Z,5.13
2018-09-09T23:57:34.698Z,5.77
